sensor_id;sensor_type;location;lat;lon;timestamp;temperature;humidity
29093;DHT22;16167;48.768;14.984;2023-02-20T00:01:46;5.00;99.90
29093;DHT22;16167;48.768;14.984;2023-02-20T00:04:14;5.00;99.90
29093;DHT22;16167;48.768;14.984;2023-02-20T00:06:43;5.10;99.90
29093;DHT22;16167;48.768;14.984;2023-02-20T00:09:12;5.00;99.90
29093;DHT22;16167;48.768;14.984;2023-02-20T00:11:40;5.00;99.90
29093;DHT22;16167;48.768;14.984;2023-02-20T00:14:08;5.10;99.90
29093;DHT22;16167;48.768;14.984;2023-02-20T00:16:36;5.10;99.90
29093;DHT22;16167;48.768;14.984;2023-02-20T00:19:04;5.10;99.90
29093;DHT22;16167;48.768;14.984;2023-02-20T00:21:32;5.10;99.90
29093;DHT22;16167;48.768;14.984;2023-02-20T00:24:02;5.00;99.90
29093;DHT22;16167;48.768;14.984;2023-02-20T00:26:30;5.00;99.90
29093;DHT22;16167;48.768;14.984;2023-02-20T00:28:58;5.00;99.90
29093;DHT22;16167;48.768;14.984;2023-02-20T00:31:26;5.00;99.90
29093;DHT22;16167;48.768;14.984;2023-02-20T00:33:54;5.00;99.90
29093;DHT22;16167;48.768;14.984;2023-02-20T00:36:22;5.00;99.90
29093;DHT22;16167;48.768;14.984;2023-02-20T00:38:50;5.00;99.90
29093;DHT22;16167;48.768;14.984;2023-02-20T00:41:20;4.90;99.90
29093;DHT22;16167;48.768;14.984;2023-02-20T00:43:48;5.00;99.90
29093;DHT22;16167;48.768;14.984;2023-02-20T00:46:16;5.00;99.90
29093;DHT22;16167;48.768;14.984;2023-02-20T00:48:44;5.00;99.90
29093;DHT22;16167;48.768;14.984;2023-02-20T00:51:12;5.00;99.90
29093;DHT22;16167;48.768;14.984;2023-02-20T00:53:40;5.00;99.90
29093;DHT22;16167;48.768;14.984;2023-02-20T00:56:08;5.00;99.90
29093;DHT22;16167;48.768;14.984;2023-02-20T00:58:38;4.90;99.90
29093;DHT22;16167;48.768;14.984;2023-02-20T01:01:06;4.90;99.90
29093;DHT22;16167;48.768;14.984;2023-02-20T01:03:35;4.90;99.90
29093;DHT22;16167;48.768;14.984;2023-02-20T01:06:03;4.90;99.90
29093;DHT22;16167;48.768;14.984;2023-02-20T01:08:32;4.90;99.90
29093;DHT22;16167;48.768;14.984;2023-02-20T01:11:00;4.90;99.90
29093;DHT22;16167;48.768;14.984;2023-02-20T01:13:28;4.90;99.90
29093;DHT22;16167;48.768;14.984;2023-02-20T01:15:58;5.00;99.90
29093;DHT22;16167;48.768;14.984;2023-02-20T01:18:26;5.00;99.90
29093;DHT22;16167;48.768;14.984;2023-02-20T01:20:54;5.00;99.90
29093;DHT22;16167;48.768;14.984;2023-02-20T01:23:23;5.00;99.90
29093;DHT22;16167;48.768;14.984;2023-02-20T01:25:51;5.00;99.90
29093;DHT22;16167;48.768;14.984;2023-02-20T01:28:19;5.10;99.90
29093;DHT22;16167;48.768;14.984;2023-02-20T01:30:47;5.00;99.90
29093;DHT22;16167;48.768;14.984;2023-02-20T01:33:17;5.00;99.90
29093;DHT22;16167;48.768;14.984;2023-02-20T01:35:45;5.00;99.90
29093;DHT22;16167;48.768;14.984;2023-02-20T01:38:13;5.10;99.90
29093;DHT22;16167;48.768;14.984;2023-02-20T01:40:46;5.10;99.90
29093;DHT22;16167;48.768;14.984;2023-02-20T01:43:15;5.10;99.90
29093;DHT22;16167;48.768;14.984;2023-02-20T01:45:44;5.10;99.90
29093;DHT22;16167;48.768;14.984;2023-02-20T01:48:21;5.10;99.90
29093;DHT22;16167;48.768;14.984;2023-02-20T01:50:53;5.10;99.90
29093;DHT22;16167;48.768;14.984;2023-02-20T01:53:23;5.20;99.90
29093;DHT22;16167;48.768;14.984;2023-02-20T01:55:52;5.20;99.90
29093;DHT22;16167;48.768;14.984;2023-02-20T01:58:24;5.30;99.90
29093;DHT22;16167;48.768;14.984;2023-02-20T02:00:53;5.30;99.90
29093;DHT22;16167;48.768;14.984;2023-02-20T02:03:26;5.30;99.90
29093;DHT22;16167;48.768;14.984;2023-02-20T02:05:58;5.30;99.90
29093;DHT22;16167;48.768;14.984;2023-02-20T02:08:28;5.30;99.90
29093;DHT22;16167;48.768;14.984;2023-02-20T02:11:00;5.30;99.90
29093;DHT22;16167;48.768;14.984;2023-02-20T02:13:30;5.30;99.90
29093;DHT22;16167;48.768;14.984;2023-02-20T02:16:05;5.30;99.90
29093;DHT22;16167;48.768;14.984;2023-02-20T02:18:49;5.30;99.90
29093;DHT22;16167;48.768;14.984;2023-02-20T02:21:39;5.30;99.90
29093;DHT22;16167;48.768;14.984;2023-02-20T02:27:47;5.40;99.90
29093;DHT22;16167;48.768;14.984;2023-02-20T02:30:41;5.40;99.90
29093;DHT22;16167;48.768;14.984;2023-02-20T02:36:35;5.50;97.90
29093;DHT22;16167;48.768;14.984;2023-02-20T02:39:12;5.60;95.90
29093;DHT22;16167;48.768;14.984;2023-02-20T02:41:48;5.70;95.30
29093;DHT22;16167;48.768;14.984;2023-02-20T02:44:23;5.70;94.60
29093;DHT22;16167;48.768;14.984;2023-02-20T02:46:56;5.80;91.20
29093;DHT22;16167;48.768;14.984;2023-02-20T02:49:30;5.80;88.50
29093;DHT22;16167;48.768;14.984;2023-02-20T02:52:03;5.90;87.50
29093;DHT22;16167;48.768;14.984;2023-02-20T02:54:32;5.90;86.00
29093;DHT22;16167;48.768;14.984;2023-02-20T02:57:19;5.90;83.30
29093;DHT22;16167;48.768;14.984;2023-02-20T02:59:55;5.80;89.30
29093;DHT22;16167;48.768;14.984;2023-02-20T03:02:28;5.80;89.10
29093;DHT22;16167;48.768;14.984;2023-02-20T03:04:59;5.80;90.30
29093;DHT22;16167;48.768;14.984;2023-02-20T03:07:30;5.80;90.30
29093;DHT22;16167;48.768;14.984;2023-02-20T03:10:04;5.80;91.40
29093;DHT22;16167;48.768;14.984;2023-02-20T03:12:36;5.80;89.80
29093;DHT22;16167;48.768;14.984;2023-02-20T03:15:09;5.80;89.60
29093;DHT22;16167;48.768;14.984;2023-02-20T03:18:09;5.80;89.00
29093;DHT22;16167;48.768;14.984;2023-02-20T03:20:42;5.80;87.80
29093;DHT22;16167;48.768;14.984;2023-02-20T03:23:14;5.80;89.40
29093;DHT22;16167;48.768;14.984;2023-02-20T03:25:49;5.80;89.40
29093;DHT22;16167;48.768;14.984;2023-02-20T03:28:23;5.70;91.10
29093;DHT22;16167;48.768;14.984;2023-02-20T03:30:55;5.70;91.30
29093;DHT22;16167;48.768;14.984;2023-02-20T03:33:32;5.70;91.40
29093;DHT22;16167;48.768;14.984;2023-02-20T03:36:23;5.70;91.50
29093;DHT22;16167;48.768;14.984;2023-02-20T03:39:15;5.70;90.00
29093;DHT22;16167;48.768;14.984;2023-02-20T03:42:04;5.80;90.20
29093;DHT22;16167;48.768;14.984;2023-02-20T03:44:51;5.80;90.00
29093;DHT22;16167;48.768;14.984;2023-02-20T03:47:21;5.80;86.80
29093;DHT22;16167;48.768;14.984;2023-02-20T03:49:51;5.80;87.40
29093;DHT22;16167;48.768;14.984;2023-02-20T03:52:20;5.80;88.50
29093;DHT22;16167;48.768;14.984;2023-02-20T03:54:50;5.80;85.40
29093;DHT22;16167;48.768;14.984;2023-02-20T03:57:23;5.80;84.10
29093;DHT22;16167;48.768;14.984;2023-02-20T03:59:55;6.00;75.20
29093;DHT22;16167;48.768;14.984;2023-02-20T04:02:26;6.00;77.60
29093;DHT22;16167;48.768;14.984;2023-02-20T04:05:00;5.90;81.00
29093;DHT22;16167;48.768;14.984;2023-02-20T04:07:34;5.90;81.60
29093;DHT22;16167;48.768;14.984;2023-02-20T04:10:06;5.90;80.60
29093;DHT22;16167;48.768;14.984;2023-02-20T04:12:39;5.90;80.20
29093;DHT22;16167;48.768;14.984;2023-02-20T04:15:09;5.90;82.10
29093;DHT22;16167;48.768;14.984;2023-02-20T04:17:41;5.90;80.20
29093;DHT22;16167;48.768;14.984;2023-02-20T04:20:13;5.90;79.50
29093;DHT22;16167;48.768;14.984;2023-02-20T04:22:44;5.90;80.90
29093;DHT22;16167;48.768;14.984;2023-02-20T04:25:20;5.90;79.90
29093;DHT22;16167;48.768;14.984;2023-02-20T04:27:50;5.90;78.40
29093;DHT22;16167;48.768;14.984;2023-02-20T04:30:18;5.90;81.30
29093;DHT22;16167;48.768;14.984;2023-02-20T04:32:46;5.90;77.10
29093;DHT22;16167;48.768;14.984;2023-02-20T04:35:15;5.90;72.00
29093;DHT22;16167;48.768;14.984;2023-02-20T04:37:44;5.90;74.60
29093;DHT22;16167;48.768;14.984;2023-02-20T04:40:17;5.90;72.80
29093;DHT22;16167;48.768;14.984;2023-02-20T04:42:45;5.90;70.70
29093;DHT22;16167;48.768;14.984;2023-02-20T04:45:13;5.90;68.30
29093;DHT22;16167;48.768;14.984;2023-02-20T04:47:43;5.90;71.60
29093;DHT22;16167;48.768;14.984;2023-02-20T04:50:16;5.90;69.20
29093;DHT22;16167;48.768;14.984;2023-02-20T04:52:45;6.00;69.60
29093;DHT22;16167;48.768;14.984;2023-02-20T04:55:15;5.90;64.30
29093;DHT22;16167;48.768;14.984;2023-02-20T04:57:43;5.90;59.40
29093;DHT22;16167;48.768;14.984;2023-02-20T05:00:12;5.90;60.40
29093;DHT22;16167;48.768;14.984;2023-02-20T05:02:41;5.90;57.30
29093;DHT22;16167;48.768;14.984;2023-02-20T05:05:17;5.90;53.70
29093;DHT22;16167;48.768;14.984;2023-02-20T05:07:45;6.00;54.60
29093;DHT22;16167;48.768;14.984;2023-02-20T05:10:14;5.90;54.50
29093;DHT22;16167;48.768;14.984;2023-02-20T05:12:43;5.90;56.10
29093;DHT22;16167;48.768;14.984;2023-02-20T05:15:12;5.80;57.20
29093;DHT22;16167;48.768;14.984;2023-02-20T05:17:40;5.70;59.60
29093;DHT22;16167;48.768;14.984;2023-02-20T05:20:10;5.70;60.60
29093;DHT22;16167;48.768;14.984;2023-02-20T05:22:38;5.70;59.40
29093;DHT22;16167;48.768;14.984;2023-02-20T05:25:06;5.70;52.80
29093;DHT22;16167;48.768;14.984;2023-02-20T05:27:34;5.80;50.50
29093;DHT22;16167;48.768;14.984;2023-02-20T05:30:05;5.80;45.60
29093;DHT22;16167;48.768;14.984;2023-02-20T05:32:34;5.80;44.70
29093;DHT22;16167;48.768;14.984;2023-02-20T05:35:02;5.80;50.20
29093;DHT22;16167;48.768;14.984;2023-02-20T05:37:30;5.80;52.80
29093;DHT22;16167;48.768;14.984;2023-02-20T05:39:59;5.70;57.40
29093;DHT22;16167;48.768;14.984;2023-02-20T05:42:27;5.70;54.60
29093;DHT22;16167;48.768;14.984;2023-02-20T05:44:55;5.70;54.10
29093;DHT22;16167;48.768;14.984;2023-02-20T05:47:25;5.80;51.40
29093;DHT22;16167;48.768;14.984;2023-02-20T05:49:53;5.90;46.40
29093;DHT22;16167;48.768;14.984;2023-02-20T05:52:21;5.80;48.20
29093;DHT22;16167;48.768;14.984;2023-02-20T05:54:49;5.80;48.90
29093;DHT22;16167;48.768;14.984;2023-02-20T05:57:17;5.80;48.70
29093;DHT22;16167;48.768;14.984;2023-02-20T05:59:45;5.80;50.80
29093;DHT22;16167;48.768;14.984;2023-02-20T06:02:13;5.80;50.40
29093;DHT22;16167;48.768;14.984;2023-02-20T06:04:43;5.90;44.20
29093;DHT22;16167;48.768;14.984;2023-02-20T06:07:11;5.90;44.60
29093;DHT22;16167;48.768;14.984;2023-02-20T06:09:41;5.90;43.20
29093;DHT22;16167;48.768;14.984;2023-02-20T06:12:10;5.90;43.30
29093;DHT22;16167;48.768;14.984;2023-02-20T06:14:39;5.90;40.00
29093;DHT22;16167;48.768;14.984;2023-02-20T06:17:07;5.90;41.70
29093;DHT22;16167;48.768;14.984;2023-02-20T06:19:35;5.80;41.90
29093;DHT22;16167;48.768;14.984;2023-02-20T06:22:05;5.70;45.60
29093;DHT22;16167;48.768;14.984;2023-02-20T06:24:33;5.70;44.10
29093;DHT22;16167;48.768;14.984;2023-02-20T06:27:01;5.70;44.10
29093;DHT22;16167;48.768;14.984;2023-02-20T06:29:29;5.70;46.20
29093;DHT22;16167;48.768;14.984;2023-02-20T06:31:58;5.70;49.30
29093;DHT22;16167;48.768;14.984;2023-02-20T06:34:26;5.70;49.40
29093;DHT22;16167;48.768;14.984;2023-02-20T06:36:57;5.70;52.70
29093;DHT22;16167;48.768;14.984;2023-02-20T06:39:28;5.70;52.30
29093;DHT22;16167;48.768;14.984;2023-02-20T06:41:56;5.70;50.50
29093;DHT22;16167;48.768;14.984;2023-02-20T06:44:24;5.80;43.50
29093;DHT22;16167;48.768;14.984;2023-02-20T06:46:53;5.90;45.90
29093;DHT22;16167;48.768;14.984;2023-02-20T06:49:21;5.80;47.20
29093;DHT22;16167;48.768;14.984;2023-02-20T06:51:51;5.90;41.60
29093;DHT22;16167;48.768;14.984;2023-02-20T06:54:20;5.90;44.00
29093;DHT22;16167;48.768;14.984;2023-02-20T06:56:49;5.90;46.90
29093;DHT22;16167;48.768;14.984;2023-02-20T06:59:18;6.00;35.50
29093;DHT22;16167;48.768;14.984;2023-02-20T07:01:46;6.10;30.00
29093;DHT22;16167;48.768;14.984;2023-02-20T07:04:17;6.00;29.20
29093;DHT22;16167;48.768;14.984;2023-02-20T07:06:45;6.10;30.20
29093;DHT22;16167;48.768;14.984;2023-02-20T07:09:14;6.10;31.50
29093;DHT22;16167;48.768;14.984;2023-02-20T07:11:42;6.20;32.90
29093;DHT22;16167;48.768;14.984;2023-02-20T07:14:12;6.30;25.60
29093;DHT22;16167;48.768;14.984;2023-02-20T07:16:40;6.30;25.20
29093;DHT22;16167;48.768;14.984;2023-02-20T07:19:08;6.40;24.10
29093;DHT22;16167;48.768;14.984;2023-02-20T07:21:37;6.40;17.40
29093;DHT22;16167;48.768;14.984;2023-02-20T07:24:06;6.50;22.30
29093;DHT22;16167;48.768;14.984;2023-02-20T07:26:34;6.50;18.90
29093;DHT22;16167;48.768;14.984;2023-02-20T07:29:05;6.60;18.40
29093;DHT22;16167;48.768;14.984;2023-02-20T07:31:35;6.80;22.50
29093;DHT22;16167;48.768;14.984;2023-02-20T07:34:05;7.00;14.10
29093;DHT22;16167;48.768;14.984;2023-02-20T07:36:33;7.20;16.70
29093;DHT22;16167;48.768;14.984;2023-02-20T07:39:02;7.20;10.80
29093;DHT22;16167;48.768;14.984;2023-02-20T07:41:32;7.30;12.90
29093;DHT22;16167;48.768;14.984;2023-02-20T07:44:02;7.30;15.10
29093;DHT22;16167;48.768;14.984;2023-02-20T07:46:30;7.40;13.60
29093;DHT22;16167;48.768;14.984;2023-02-20T07:49:03;7.40;15.50
29093;DHT22;16167;48.768;14.984;2023-02-20T07:51:32;7.50;7.60
29093;DHT22;16167;48.768;14.984;2023-02-20T07:54:00;7.60;15.50
29093;DHT22;16167;48.768;14.984;2023-02-20T07:56:29;7.60;15.70
29093;DHT22;16167;48.768;14.984;2023-02-20T07:58:57;7.60;11.20
29093;DHT22;16167;48.768;14.984;2023-02-20T08:01:26;7.70;13.60
29093;DHT22;16167;48.768;14.984;2023-02-20T08:03:54;7.70;11.90
29093;DHT22;16167;48.768;14.984;2023-02-20T08:06:24;7.70;9.10
29093;DHT22;16167;48.768;14.984;2023-02-20T08:08:53;7.80;7.40
29093;DHT22;16167;48.768;14.984;2023-02-20T08:11:22;7.70;5.70
29093;DHT22;16167;48.768;14.984;2023-02-20T08:13:50;7.80;7.10
29093;DHT22;16167;48.768;14.984;2023-02-20T08:16:21;7.80;1.00
29093;DHT22;16167;48.768;14.984;2023-02-20T08:18:49;8.00;5.10
29093;DHT22;16167;48.768;14.984;2023-02-20T08:21:17;8.20;4.60
29093;DHT22;16167;48.768;14.984;2023-02-20T08:23:47;8.20;1.00
29093;DHT22;16167;48.768;14.984;2023-02-20T08:26:15;8.40;1.30
29093;DHT22;16167;48.768;14.984;2023-02-20T08:28:45;8.60;2.80
29093;DHT22;16167;48.768;14.984;2023-02-20T08:31:13;8.80;1.00
29093;DHT22;16167;48.768;14.984;2023-02-20T08:33:57;9.00;1.00
29093;DHT22;16167;48.768;14.984;2023-02-20T08:36:26;9.30;1.00
29093;DHT22;16167;48.768;14.984;2023-02-20T08:38:55;9.50;1.00
29093;DHT22;16167;48.768;14.984;2023-02-20T08:41:25;9.70;1.00
29093;DHT22;16167;48.768;14.984;2023-02-20T08:43:54;9.90;1.00
29093;DHT22;16167;48.768;14.984;2023-02-20T08:46:22;10.00;3.60
29093;DHT22;16167;48.768;14.984;2023-02-20T08:48:50;10.20;7.40
29093;DHT22;16167;48.768;14.984;2023-02-20T08:51:19;10.00;7.30
29093;DHT22;16167;48.768;14.984;2023-02-20T08:53:48;9.80;5.20
29093;DHT22;16167;48.768;14.984;2023-02-20T08:56:19;9.80;20.00
29093;DHT22;16167;48.768;14.984;2023-02-20T08:58:47;10.00;23.80
29093;DHT22;16167;48.768;14.984;2023-02-20T09:01:15;10.10;25.00
29093;DHT22;16167;48.768;14.984;2023-02-20T09:03:43;10.00;26.10
29093;DHT22;16167;48.768;14.984;2023-02-20T09:06:11;10.10;25.40
29093;DHT22;16167;48.768;14.984;2023-02-20T09:08:40;10.30;26.20
29093;DHT22;16167;48.768;14.984;2023-02-20T09:11:08;10.50;18.10
29093;DHT22;16167;48.768;14.984;2023-02-20T09:13:42;10.70;23.70
29093;DHT22;16167;48.768;14.984;2023-02-20T09:16:11;10.70;27.20
29093;DHT22;16167;48.768;14.984;2023-02-20T09:18:39;10.70;26.40
29093;DHT22;16167;48.768;14.984;2023-02-20T09:21:08;10.70;27.90
29093;DHT22;16167;48.768;14.984;2023-02-20T09:23:38;10.70;28.00
29093;DHT22;16167;48.768;14.984;2023-02-20T09:26:06;10.80;24.20
29093;DHT22;16167;48.768;14.984;2023-02-20T09:28:34;10.80;20.80
29093;DHT22;16167;48.768;14.984;2023-02-20T09:31:04;10.80;22.70
29093;DHT22;16167;48.768;14.984;2023-02-20T09:33:32;11.00;22.90
29093;DHT22;16167;48.768;14.984;2023-02-20T09:36:00;10.90;16.80
29093;DHT22;16167;48.768;14.984;2023-02-20T09:38:28;10.80;18.60
29093;DHT22;16167;48.768;14.984;2023-02-20T09:40:58;10.70;19.00
29093;DHT22;16167;48.768;14.984;2023-02-20T09:43:35;10.70;19.30
29093;DHT22;16167;48.768;14.984;2023-02-20T09:46:09;10.90;20.30
29093;DHT22;16167;48.768;14.984;2023-02-20T09:48:51;11.00;19.50
29093;DHT22;16167;48.768;14.984;2023-02-20T09:51:22;10.90;19.00
29093;DHT22;16167;48.768;14.984;2023-02-20T09:53:56;10.90;19.10
29093;DHT22;16167;48.768;14.984;2023-02-20T09:56:27;10.90;20.30
29093;DHT22;16167;48.768;14.984;2023-02-20T09:59:02;11.00;20.10
29093;DHT22;16167;48.768;14.984;2023-02-20T10:01:38;11.30;22.60
29093;DHT22;16167;48.768;14.984;2023-02-20T10:04:12;11.40;21.40
29093;DHT22;16167;48.768;14.984;2023-02-20T10:06:43;11.40;19.70
29093;DHT22;16167;48.768;14.984;2023-02-20T10:09:13;11.20;20.50
29093;DHT22;16167;48.768;14.984;2023-02-20T10:11:49;11.20;24.50
29093;DHT22;16167;48.768;14.984;2023-02-20T10:14:33;11.40;23.60
29093;DHT22;16167;48.768;14.984;2023-02-20T10:17:18;11.20;23.80
29093;DHT22;16167;48.768;14.984;2023-02-20T10:19:50;11.30;23.20
29093;DHT22;16167;48.768;14.984;2023-02-20T10:22:23;11.40;23.30
29093;DHT22;16167;48.768;14.984;2023-02-20T10:25:01;11.70;23.60
29093;DHT22;16167;48.768;14.984;2023-02-20T10:27:41;12.00;22.40
29093;DHT22;16167;48.768;14.984;2023-02-20T10:30:12;12.20;21.90
29093;DHT22;16167;48.768;14.984;2023-02-20T10:32:45;12.30;22.40
29093;DHT22;16167;48.768;14.984;2023-02-20T10:35:19;12.40;23.30
29093;DHT22;16167;48.768;14.984;2023-02-20T10:37:52;12.80;23.60
29093;DHT22;16167;48.768;14.984;2023-02-20T10:40:25;13.20;24.00
29093;DHT22;16167;48.768;14.984;2023-02-20T10:43:00;13.50;23.20
29093;DHT22;16167;48.768;14.984;2023-02-20T10:45:39;13.60;22.20
29093;DHT22;16167;48.768;14.984;2023-02-20T10:48:12;13.70;20.30
29093;DHT22;16167;48.768;14.984;2023-02-20T10:50:46;13.50;19.80
29093;DHT22;16167;48.768;14.984;2023-02-20T10:53:21;13.30;20.00
29093;DHT22;16167;48.768;14.984;2023-02-20T10:55:57;13.10;21.20
29093;DHT22;16167;48.768;14.984;2023-02-20T10:58:31;12.90;20.90
29093;DHT22;16167;48.768;14.984;2023-02-20T11:01:03;12.60;21.80
29093;DHT22;16167;48.768;14.984;2023-02-20T11:03:39;12.50;22.80
29093;DHT22;16167;48.768;14.984;2023-02-20T11:06:12;12.70;29.80
29093;DHT22;16167;48.768;14.984;2023-02-20T11:08:42;12.90;28.50
29093;DHT22;16167;48.768;14.984;2023-02-20T11:11:27;13.10;29.70
29093;DHT22;16167;48.768;14.984;2023-02-20T11:14:01;13.20;26.90
29093;DHT22;16167;48.768;14.984;2023-02-20T11:16:39;13.00;26.20
29093;DHT22;16167;48.768;14.984;2023-02-20T11:19:14;13.20;26.10
29093;DHT22;16167;48.768;14.984;2023-02-20T11:21:46;13.10;26.90
29093;DHT22;16167;48.768;14.984;2023-02-20T11:24:28;13.00;21.70
29093;DHT22;16167;48.768;14.984;2023-02-20T11:27:00;12.80;23.80
29093;DHT22;16167;48.768;14.984;2023-02-20T11:29:34;12.60;22.40
29093;DHT22;16167;48.768;14.984;2023-02-20T11:32:24;12.50;24.20
29093;DHT22;16167;48.768;14.984;2023-02-20T11:35:22;12.10;23.50
29093;DHT22;16167;48.768;14.984;2023-02-20T11:41:06;11.80;27.50
29093;DHT22;16167;48.768;14.984;2023-02-20T11:43:37;12.40;27.70
29093;DHT22;16167;48.768;14.984;2023-02-20T11:46:14;13.20;26.70
29093;DHT22;16167;48.768;14.984;2023-02-20T11:48:59;13.70;26.80
29093;DHT22;16167;48.768;14.984;2023-02-20T11:51:34;14.20;24.30
29093;DHT22;16167;48.768;14.984;2023-02-20T11:54:12;14.50;23.40
29093;DHT22;16167;48.768;14.984;2023-02-20T11:56:58;14.30;23.60
29093;DHT22;16167;48.768;14.984;2023-02-20T11:59:36;14.00;24.80
29093;DHT22;16167;48.768;14.984;2023-02-20T12:02:25;13.70;24.80
29093;DHT22;16167;48.768;14.984;2023-02-20T12:05:11;13.60;28.80
29093;DHT22;16167;48.768;14.984;2023-02-20T12:07:43;13.50;29.80
29093;DHT22;16167;48.768;14.984;2023-02-20T12:10:26;13.30;29.10
29093;DHT22;16167;48.768;14.984;2023-02-20T12:12:55;13.60;28.90
29093;DHT22;16167;48.768;14.984;2023-02-20T12:15:26;14.50;28.40
29093;DHT22;16167;48.768;14.984;2023-02-20T12:18:13;14.70;25.00
29093;DHT22;16167;48.768;14.984;2023-02-20T12:20:47;15.40;24.90
29093;DHT22;16167;48.768;14.984;2023-02-20T12:23:27;15.40;23.90
29093;DHT22;16167;48.768;14.984;2023-02-20T12:26:10;15.30;22.80
29093;DHT22;16167;48.768;14.984;2023-02-20T12:28:46;15.80;22.60
29093;DHT22;16167;48.768;14.984;2023-02-20T12:31:23;16.10;21.90
29093;DHT22;16167;48.768;14.984;2023-02-20T12:34:12;15.20;21.90
29093;DHT22;16167;48.768;14.984;2023-02-20T12:36:48;15.40;23.40
29093;DHT22;16167;48.768;14.984;2023-02-20T12:39:26;14.90;22.40
29093;DHT22;16167;48.768;14.984;2023-02-20T12:42:08;14.50;21.90
29093;DHT22;16167;48.768;14.984;2023-02-20T12:44:56;14.00;20.80
29093;DHT22;16167;48.768;14.984;2023-02-20T12:47:29;14.40;23.00
29093;DHT22;16167;48.768;14.984;2023-02-20T12:50:18;14.30;22.70
29093;DHT22;16167;48.768;14.984;2023-02-20T12:53:08;14.70;21.20
29093;DHT22;16167;48.768;14.984;2023-02-20T12:55:44;14.40;20.50
29093;DHT22;16167;48.768;14.984;2023-02-20T12:58:24;14.00;21.30
29093;DHT22;16167;48.768;14.984;2023-02-20T13:00:59;13.30;23.60
29093;DHT22;16167;48.768;14.984;2023-02-20T13:03:38;13.10;19.20
29093;DHT22;16167;48.768;14.984;2023-02-20T13:06:08;13.20;19.00
29093;DHT22;16167;48.768;14.984;2023-02-20T13:08:53;13.40;18.70
29093;DHT22;16167;48.768;14.984;2023-02-20T13:11:25;13.40;19.10
29093;DHT22;16167;48.768;14.984;2023-02-20T13:14:05;15.30;17.10
29093;DHT22;16167;48.768;14.984;2023-02-20T13:16:40;16.40;16.30
29093;DHT22;16167;48.768;14.984;2023-02-20T13:19:18;17.90;14.00
29093;DHT22;16167;48.768;14.984;2023-02-20T13:21:48;17.60;13.90
29093;DHT22;16167;48.768;14.984;2023-02-20T13:24:31;17.00;16.60
29093;DHT22;16167;48.768;14.984;2023-02-20T13:27:02;17.20;15.20
29093;DHT22;16167;48.768;14.984;2023-02-20T13:29:56;16.60;14.90
29093;DHT22;16167;48.768;14.984;2023-02-20T13:32:26;16.30;16.80
29093;DHT22;16167;48.768;14.984;2023-02-20T13:38:08;17.00;15.20
29093;DHT22;16167;48.768;14.984;2023-02-20T13:40:39;17.90;14.60
29093;DHT22;16167;48.768;14.984;2023-02-20T13:43:28;17.80;12.80
29093;DHT22;16167;48.768;14.984;2023-02-20T13:46:16;17.00;12.80
29093;DHT22;16167;48.768;14.984;2023-02-20T13:48:50;16.40;14.60
29093;DHT22;16167;48.768;14.984;2023-02-20T13:51:31;16.00;16.00
29093;DHT22;16167;48.768;14.984;2023-02-20T13:54:24;15.20;16.80
29093;DHT22;16167;48.768;14.984;2023-02-20T13:56:56;14.90;17.80
29093;DHT22;16167;48.768;14.984;2023-02-20T13:59:30;14.80;18.90
29093;DHT22;16167;48.768;14.984;2023-02-20T14:02:12;14.50;18.10
29093;DHT22;16167;48.768;14.984;2023-02-20T14:04:55;14.30;20.10
29093;DHT22;16167;48.768;14.984;2023-02-20T14:07:29;14.40;20.40
29093;DHT22;16167;48.768;14.984;2023-02-20T14:10:02;14.90;19.20
29093;DHT22;16167;48.768;14.984;2023-02-20T14:12:32;15.00;19.40
29093;DHT22;16167;48.768;14.984;2023-02-20T14:15:04;15.00;17.20
29093;DHT22;16167;48.768;14.984;2023-02-20T14:17:33;15.50;18.90
29093;DHT22;16167;48.768;14.984;2023-02-20T14:20:10;15.80;18.40
29093;DHT22;16167;48.768;14.984;2023-02-20T14:22:42;15.40;17.20
29093;DHT22;16167;48.768;14.984;2023-02-20T14:25:28;14.70;18.40
29093;DHT22;16167;48.768;14.984;2023-02-20T14:28:07;14.20;19.70
29093;DHT22;16167;48.768;14.984;2023-02-20T14:30:37;14.10;20.70
29093;DHT22;16167;48.768;14.984;2023-02-20T14:33:19;13.80;19.00
29093;DHT22;16167;48.768;14.984;2023-02-20T14:35:57;13.50;20.70
29093;DHT22;16167;48.768;14.984;2023-02-20T14:38:36;13.10;20.40
29093;DHT22;16167;48.768;14.984;2023-02-20T14:41:11;12.80;22.10
29093;DHT22;16167;48.768;14.984;2023-02-20T14:43:40;12.80;22.40
29093;DHT22;16167;48.768;14.984;2023-02-20T14:46:20;12.60;22.60
29093;DHT22;16167;48.768;14.984;2023-02-20T14:49:03;12.50;22.80
29093;DHT22;16167;48.768;14.984;2023-02-20T14:51:32;12.30;23.70
29093;DHT22;16167;48.768;14.984;2023-02-20T14:54:01;12.20;23.90
29093;DHT22;16167;48.768;14.984;2023-02-20T14:56:29;12.10;23.80
29093;DHT22;16167;48.768;14.984;2023-02-20T14:59:15;12.10;24.10
29093;DHT22;16167;48.768;14.984;2023-02-20T15:01:45;12.00;23.40
29093;DHT22;16167;48.768;14.984;2023-02-20T15:04:13;11.90;23.10
29093;DHT22;16167;48.768;14.984;2023-02-20T15:06:44;11.90;23.70
29093;DHT22;16167;48.768;14.984;2023-02-20T15:09:12;11.80;23.50
29093;DHT22;16167;48.768;14.984;2023-02-20T15:11:51;11.80;24.50
29093;DHT22;16167;48.768;14.984;2023-02-20T15:14:23;11.80;24.30
29093;DHT22;16167;48.768;14.984;2023-02-20T15:17:18;12.10;24.70
29093;DHT22;16167;48.768;14.984;2023-02-20T15:19:47;12.00;22.70
29093;DHT22;16167;48.768;14.984;2023-02-20T15:22:27;12.00;24.30
29093;DHT22;16167;48.768;14.984;2023-02-20T15:25:12;12.00;23.30
29093;DHT22;16167;48.768;14.984;2023-02-20T15:28:08;11.80;23.70
29093;DHT22;16167;48.768;14.984;2023-02-20T15:31:05;11.60;24.50
29093;DHT22;16167;48.768;14.984;2023-02-20T15:33:36;11.60;25.00
29093;DHT22;16167;48.768;14.984;2023-02-20T15:36:08;11.60;24.50
29093;DHT22;16167;48.768;14.984;2023-02-20T15:38:38;11.40;24.20
29093;DHT22;16167;48.768;14.984;2023-02-20T15:41:07;11.30;24.40
29093;DHT22;16167;48.768;14.984;2023-02-20T15:43:35;11.20;24.20
29093;DHT22;16167;48.768;14.984;2023-02-20T15:46:14;11.20;24.50
29093;DHT22;16167;48.768;14.984;2023-02-20T15:48:44;11.10;25.00
29093;DHT22;16167;48.768;14.984;2023-02-20T15:51:13;11.00;25.20
29093;DHT22;16167;48.768;14.984;2023-02-20T15:53:44;10.90;24.20
29093;DHT22;16167;48.768;14.984;2023-02-20T15:56:13;10.80;24.50
29093;DHT22;16167;48.768;14.984;2023-02-20T15:58:42;10.80;24.60
29093;DHT22;16167;48.768;14.984;2023-02-20T16:01:11;10.80;25.30
29093;DHT22;16167;48.768;14.984;2023-02-20T16:03:39;10.70;25.50
29093;DHT22;16167;48.768;14.984;2023-02-20T16:06:20;10.70;25.70
29093;DHT22;16167;48.768;14.984;2023-02-20T16:08:48;10.60;25.10
29093;DHT22;16167;48.768;14.984;2023-02-20T16:11:17;10.60;25.60
29093;DHT22;16167;48.768;14.984;2023-02-20T16:13:48;10.50;24.80